createdAt,value
2017-09-22T00:00:59.403Z,18.30
2017-09-22T00:03:26.588Z,18.30
2017-09-22T00:05:54.532Z,18.30
2017-09-22T00:08:21.680Z,18.30
2017-09-22T00:10:48.863Z,18.30
2017-09-22T00:13:16.015Z,18.30
2017-09-22T00:15:43.203Z,18.30
2017-09-22T00:18:10.355Z,18.30
2017-09-22T00:20:37.507Z,18.30
2017-09-22T00:23:04.694Z,18.20
2017-09-22T00:25:32.646Z,18.20
2017-09-22T00:27:59.795Z,18.20
2017-09-22T00:30:26.978Z,18.20
2017-09-22T00:32:54.920Z,18.20
2017-09-22T00:35:22.077Z,18.20
2017-09-22T00:37:49.255Z,18.20
2017-09-22T00:40:17.204Z,18.20
2017-09-22T00:42:44.359Z,18.20
2017-09-22T00:45:12.308Z,18.20
2017-09-22T00:47:39.488Z,18.10
2017-09-22T00:50:07.436Z,18.10
2017-09-22T00:52:34.582Z,18.10
2017-09-22T00:55:01.760Z,18.10
2017-09-22T00:57:29.672Z,18.10
2017-09-22T00:59:56.859Z,18.10
2017-09-22T01:02:24.007Z,18.10
2017-09-22T01:04:51.151Z,18.20
2017-09-22T01:07:18.344Z,18.20
2017-09-22T01:09:46.260Z,18.10
2017-09-22T01:12:13.408Z,18.10
2017-09-22T01:14:40.588Z,18.10
2017-09-22T01:17:07.736Z,18.10
2017-09-22T01:19:34.937Z,18.10
2017-09-22T01:22:02.100Z,18.10
2017-09-22T01:24:29.251Z,18.10
2017-09-22T01:26:56.445Z,18.10
2017-09-22T01:29:23.584Z,18.10
2017-09-22T01:31:50.732Z,18.10
2017-09-22T01:34:17.911Z,18.10
2017-09-22T01:36:45.060Z,18.10
2017-09-22T01:39:13.009Z,18.10
2017-09-22T01:41:40.188Z,18.00
2017-09-22T01:44:08.109Z,18.00
2017-09-22T01:46:35.288Z,18.10
2017-09-22T01:49:02.436Z,18.00
2017-09-22T01:51:29.612Z,18.00
2017-09-22T01:53:57.521Z,18.00
2017-09-22T01:56:24.699Z,18.00
2017-09-22T01:58:52.624Z,18.00
2017-09-22T02:01:19.803Z,18.00
2017-09-22T02:03:46.987Z,18.00
2017-09-22T02:06:15.048Z,18.00
2017-09-22T02:08:42.232Z,18.00
2017-09-22T02:11:10.147Z,18.00
2017-09-22T02:13:37.323Z,18.00
2017-09-22T02:16:04.469Z,18.00
2017-09-22T02:18:31.659Z,18.00
2017-09-22T02:20:59.566Z,18.00
2017-09-22T02:23:26.712Z,18.00
2017-09-22T02:25:53.895Z,18.00
2017-09-22T02:28:21.973Z,18.00
2017-09-22T02:30:50.079Z,18.00
2017-09-22T02:33:18.030Z,18.00
2017-09-22T02:35:45.219Z,18.00
2017-09-22T02:38:13.184Z,18.00
2017-09-22T02:40:41.229Z,18.00
2017-09-22T02:43:09.172Z,18.00
2017-09-22T02:45:37.257Z,18.00
2017-09-22T02:48:04.441Z,18.00
2017-09-22T02:50:32.351Z,18.00
2017-09-22T02:53:00.466Z,18.00
2017-09-22T02:55:29.320Z,18.00
2017-09-22T02:57:56.603Z,17.90
2017-09-22T03:00:24.684Z,18.00
2017-09-22T03:02:53.557Z,18.00
2017-09-22T03:05:20.703Z,17.90
2017-09-22T03:07:48.620Z,18.00
2017-09-22T03:10:15.767Z,17.90
2017-09-22T03:12:43.772Z,18.00
2017-09-22T03:15:10.919Z,18.00
2017-09-22T03:17:38.835Z,18.00
2017-09-22T03:20:07.719Z,18.00
2017-09-22T03:22:35.846Z,17.90
2017-09-22T03:25:03.918Z,17.90
2017-09-22T03:27:31.060Z,17.90
2017-09-22T03:29:58.999Z,17.90
2017-09-22T03:32:27.732Z,17.90
2017-09-22T03:34:55.651Z,17.90
2017-09-22T03:37:23.559Z,17.90
2017-09-22T03:39:51.545Z,17.90
2017-09-22T03:42:18.735Z,17.90
2017-09-22T03:44:45.875Z,17.90
2017-09-22T03:47:13.939Z,17.90
2017-09-22T03:49:41.120Z,17.90
2017-09-22T03:52:09.859Z,17.90
2017-09-22T03:54:37.005Z,17.90
2017-09-22T03:57:04.150Z,17.90
2017-09-22T03:59:31.327Z,17.90
2017-09-22T04:01:58.470Z,17.90
2017-09-22T04:04:25.646Z,17.90
2017-09-22T04:06:52.819Z,17.90
2017-09-22T04:09:20.777Z,17.90
2017-09-22T04:11:47.919Z,17.90
2017-09-22T04:14:15.060Z,17.90
2017-09-22T04:16:42.239Z,17.90
2017-09-22T04:19:10.990Z,17.90
2017-09-22T04:21:38.175Z,17.90
2017-09-22T04:24:06.096Z,17.90
2017-09-22T04:26:33.242Z,17.90
2017-09-22T04:29:01.348Z,17.90
2017-09-22T04:31:28.497Z,17.90
2017-09-22T04:33:56.456Z,17.90
2017-09-22T04:36:24.540Z,17.90
2017-09-22T04:38:52.600Z,17.90
2017-09-22T04:41:19.779Z,17.90
2017-09-22T04:43:47.726Z,17.90
2017-09-22T04:46:15.802Z,17.90
2017-09-22T04:48:42.980Z,17.90
2017-09-22T04:51:11.676Z,17.90
2017-09-22T04:53:40.525Z,17.90
2017-09-22T04:56:08.109Z,17.90
2017-09-22T04:58:35.288Z,17.90
2017-09-22T05:01:04.016Z,17.90
2017-09-22T05:03:31.167Z,17.90
2017-09-22T05:05:59.251Z,17.90
2017-09-22T05:08:26.445Z,17.90
2017-09-22T05:10:55.139Z,17.90
2017-09-22T05:13:23.943Z,17.90
2017-09-22T05:15:51.903Z,17.90
2017-09-22T05:18:19.822Z,17.90
2017-09-22T05:20:47.771Z,17.90
2017-09-22T05:23:14.969Z,17.90
2017-09-22T05:25:42.111Z,17.90
2017-09-22T05:28:10.175Z,17.90
2017-09-22T05:30:37.364Z,17.90
2017-09-22T05:33:05.307Z,17.90
2017-09-22T05:35:33.347Z,17.90
2017-09-22T05:38:01.415Z,17.90
2017-09-22T05:40:28.557Z,17.90
2017-09-22T05:42:55.740Z,17.90
2017-09-22T05:45:23.879Z,17.90
2017-09-22T05:47:51.018Z,17.90
2017-09-22T05:50:18.155Z,17.90
2017-09-22T05:52:46.113Z,17.90
2017-09-22T05:55:14.024Z,17.80
2017-09-22T05:57:41.175Z,17.80
2017-09-22T06:00:08.359Z,17.70
2017-09-22T06:02:35.507Z,17.50
2017-09-22T06:05:02.648Z,17.40
2017-09-22T06:07:29.836Z,17.40
2017-09-22T06:09:58.584Z,17.30
2017-09-22T06:12:25.732Z,17.30
2017-09-22T06:14:53.698Z,17.30
2017-09-22T06:17:20.848Z,17.30
2017-09-22T06:19:47.997Z,17.30
2017-09-22T06:22:15.976Z,17.30
2017-09-22T06:24:44.082Z,17.30
2017-09-22T06:27:11.238Z,17.30
2017-09-22T06:29:40.091Z,17.40
2017-09-22T06:32:07.235Z,17.40
2017-09-22T06:34:35.191Z,17.50
2017-09-22T06:37:03.152Z,17.60
2017-09-22T06:39:31.259Z,17.70
2017-09-22T06:41:58.402Z,17.70
2017-09-22T06:44:26.320Z,17.70
2017-09-22T06:46:54.267Z,17.70
2017-09-22T06:49:22.336Z,17.60
2017-09-22T06:51:49.475Z,17.60
2017-09-22T06:54:16.658Z,17.60
2017-09-22T06:56:44.629Z,17.50
2017-09-22T06:59:12.984Z,17.50
2017-09-22T07:01:41.885Z,17.50
2017-09-22T07:04:09.032Z,17.50
2017-09-22T07:06:36.175Z,17.50
2017-09-22T07:09:03.372Z,17.50
2017-09-22T07:11:32.084Z,17.50
2017-09-22T07:13:59.260Z,17.40
2017-09-22T08:52:47.239Z,17.70
2017-09-22T08:55:15.327Z,17.80
2017-09-22T08:57:42.498Z,17.90
2017-09-22T09:00:10.200Z,17.90
2017-09-22T09:02:38.916Z,18.00
2017-09-22T09:05:06.094Z,18.00
2017-09-22T09:07:34.027Z,17.90
2017-09-22T09:10:01.980Z,17.80
2017-09-22T09:12:29.131Z,17.80
2017-09-22T09:14:56.275Z,17.90
2017-09-22T09:17:23.461Z,18.00
2017-09-22T09:19:50.642Z,18.10
2017-09-22T09:22:18.731Z,18.20
2017-09-22T09:24:45.912Z,18.30
2017-09-22T09:27:13.091Z,18.40
2017-09-22T09:29:40.239Z,18.40
2017-09-22T09:32:07.417Z,18.50
2017-09-22T09:34:35.480Z,18.60
2017-09-22T09:37:02.674Z,18.60
2017-09-22T09:39:29.824Z,18.70
2017-09-22T09:41:57.870Z,18.70
2017-09-22T09:44:25.848Z,18.80
2017-09-22T09:46:52.991Z,18.80
2017-09-22T09:49:21.135Z,18.80
2017-09-22T09:51:51.014Z,18.80
2017-09-22T09:54:18.969Z,18.80
2017-09-22T09:56:47.138Z,18.70
2017-09-22T09:59:14.330Z,18.80
2017-09-22T10:01:42.246Z,18.70
2017-09-22T10:04:09.391Z,18.70
2017-09-22T10:06:36.579Z,18.70
2017-09-22T10:09:03.720Z,18.70
2017-09-22T10:11:30.871Z,18.70
2017-09-22T10:13:58.066Z,18.70
2017-09-22T10:16:25.971Z,18.60
2017-09-22T10:18:53.124Z,18.60
2017-09-22T10:21:20.304Z,18.60
2017-09-22T10:23:48.220Z,18.60
2017-09-22T10:26:15.404Z,18.60
2017-09-22T10:28:42.555Z,18.60
2017-09-22T10:31:10.547Z,18.60
2017-09-22T10:33:37.697Z,18.60
2017-09-22T10:36:05.783Z,18.70
2017-09-22T10:38:32.959Z,18.60
2017-09-22T10:41:01.639Z,18.60
2017-09-22T10:43:30.488Z,18.60
2017-09-22T10:45:57.632Z,18.60
2017-09-22T10:48:25.623Z,18.60
2017-09-22T10:50:52.766Z,18.60
2017-09-22T10:53:20.711Z,18.40
2017-09-22T10:55:47.854Z,18.40
2017-09-22T10:58:15.040Z,18.30
2017-09-22T11:00:42.998Z,18.10
2017-09-22T11:03:10.147Z,18.10
2017-09-22T11:05:37.322Z,18.20
2017-09-22T11:08:04.495Z,18.10
2017-09-22T11:10:31.670Z,18.20
2017-09-22T11:12:58.816Z,18.40
2017-09-22T11:15:26.899Z,18.40
2017-09-22T11:17:54.045Z,18.50
2017-09-22T11:20:21.231Z,18.50
2017-09-22T11:22:49.196Z,18.50
2017-09-22T11:25:16.342Z,18.50
2017-09-22T11:27:43.516Z,18.50
2017-09-22T11:30:11.564Z,18.50
2017-09-22T11:32:39.647Z,18.50
2017-09-22T11:35:06.793Z,18.50
2017-09-22T11:37:33.941Z,18.50
2017-09-22T11:40:01.900Z,18.50
2017-09-22T11:42:29.947Z,18.50
2017-09-22T11:44:58.011Z,18.50
2017-09-22T11:47:26.738Z,18.50
2017-09-22T11:49:54.673Z,18.50
2017-09-22T11:52:22.611Z,18.50
2017-09-22T11:54:50.727Z,18.50
2017-09-22T11:57:18.775Z,18.50
2017-09-22T11:59:46.692Z,18.50
2017-09-22T12:02:14.651Z,18.50
2017-09-22T12:04:42.562Z,18.50
2017-09-22T12:07:09.735Z,18.50
2017-09-22T12:09:36.888Z,18.50
2017-09-22T12:12:04.854Z,18.50
2017-09-22T12:14:32.003Z,18.50
2017-09-22T12:16:59.926Z,18.50
2017-09-22T12:19:27.106Z,18.50
2017-09-22T12:21:55.922Z,18.50
2017-09-22T12:24:23.879Z,18.50
2017-09-22T12:26:51.019Z,18.50
2017-09-22T12:29:19.107Z,18.40
2017-09-22T12:31:47.188Z,18.40
2017-09-22T12:34:15.099Z,18.40
2017-09-22T12:36:43.025Z,18.40
2017-09-22T12:39:11.746Z,18.40
2017-09-22T12:41:39.651Z,18.40
2017-09-22T12:44:06.831Z,18.40
2017-09-22T12:46:35.675Z,18.40
2017-09-22T12:49:03.766Z,18.40
2017-09-22T12:51:30.951Z,18.40
2017-09-22T12:53:58.868Z,18.40
2017-09-22T12:56:26.912Z,18.40
2017-09-22T12:58:54.095Z,18.40
2017-09-22T13:01:21.248Z,18.40
2017-09-22T13:03:48.403Z,18.40
2017-09-22T13:06:16.491Z,18.40
2017-09-22T13:08:43.634Z,18.40
2017-09-22T13:11:11.624Z,18.40
2017-09-22T13:13:38.772Z,18.40
2017-09-22T13:16:06.708Z,18.40
2017-09-22T13:18:33.884Z,18.40
2017-09-22T13:21:01.027Z,18.40
2017-09-22T13:23:29.031Z,18.40
2017-09-22T13:25:57.719Z,18.40
2017-09-22T13:28:26.547Z,18.40
2017-09-22T13:30:54.611Z,18.40
2017-09-22T13:33:22.649Z,18.40
2017-09-22T13:35:49.842Z,18.40
2017-09-22T13:38:17.878Z,18.40
2017-09-22T13:40:46.566Z,18.40
2017-09-22T13:43:15.459Z,18.40
2017-09-22T13:45:44.280Z,18.40
2017-09-22T13:48:12.323Z,18.40
2017-09-22T13:50:40.271Z,18.40
2017-09-22T13:53:07.420Z,18.40
2017-09-22T13:55:36.155Z,18.40
2017-09-22T13:58:04.244Z,18.40
2017-09-22T14:00:31.939Z,18.40
2017-09-22T14:02:59.903Z,18.30
2017-09-22T14:05:28.620Z,18.30
2017-09-22T14:07:57.510Z,18.30
2017-09-22T14:10:26.374Z,18.30
2017-09-22T14:12:54.503Z,18.30
2017-09-22T14:15:22.575Z,18.30
2017-09-22T14:17:50.640Z,18.30
2017-09-22T14:20:19.511Z,18.30
2017-09-22T14:22:47.567Z,18.30
2017-09-22T14:25:15.539Z,18.30
2017-09-22T14:27:42.691Z,18.30
2017-09-22T14:30:10.743Z,18.30
2017-09-22T14:32:38.697Z,18.30
2017-09-22T14:35:05.844Z,18.30
2017-09-22T14:37:33.825Z,18.30
2017-09-22T14:40:01.010Z,18.30
2017-09-22T14:42:28.918Z,18.30
2017-09-22T14:44:56.054Z,18.30
2017-09-22T14:47:24.782Z,18.30
2017-09-22T14:49:51.931Z,18.30
2017-09-22T14:52:20.056Z,18.30
2017-09-22T14:54:47.972Z,18.30
2017-09-22T14:57:15.920Z,18.30
2017-09-22T14:59:43.099Z,18.30
2017-09-22T15:02:10.246Z,18.30
2017-09-22T15:04:37.439Z,18.30
2017-09-22T15:07:05.365Z,18.30
2017-09-22T15:09:32.513Z,18.30
2017-09-22T15:12:00.619Z,18.30
2017-09-22T15:14:28.695Z,18.30
2017-09-22T15:16:56.748Z,18.30
2017-09-22T15:19:23.927Z,18.30
2017-09-22T15:21:51.915Z,18.30
2017-09-22T15:24:20.651Z,18.30
2017-09-22T15:26:47.796Z,18.30
2017-09-22T15:29:15.887Z,18.30
2017-09-22T15:31:43.966Z,18.30
2017-09-22T15:34:11.892Z,18.30
2017-09-22T15:36:39.071Z,18.30
2017-09-22T15:39:07.019Z,18.30
2017-09-22T15:41:35.109Z,18.30
2017-09-22T15:44:03.192Z,18.30
2017-09-22T15:46:31.243Z,18.30
2017-09-22T15:48:59.186Z,18.30
2017-09-22T15:51:27.914Z,18.20
2017-09-22T15:53:55.095Z,18.30
2017-09-22T15:56:23.210Z,18.20
2017-09-22T15:58:51.253Z,18.30
2017-09-22T16:01:19.304Z,18.20
2017-09-22T16:03:47.408Z,18.20
2017-09-22T16:06:16.228Z,18.20
2017-09-22T16:08:44.262Z,18.20
2017-09-22T16:11:12.207Z,18.20
2017-09-22T16:13:40.299Z,18.20
2017-09-22T16:16:08.372Z,18.20
2017-09-22T16:18:36.429Z,18.20
2017-09-22T16:21:03.611Z,18.20
2017-09-22T16:23:32.314Z,18.20
2017-09-22T16:26:00.416Z,18.20
2017-09-22T16:28:27.556Z,18.20
2017-09-22T16:30:55.656Z,18.20
2017-09-22T16:33:23.699Z,18.20
2017-09-22T16:35:50.843Z,18.20
2017-09-22T16:38:18.924Z,18.20
2017-09-22T16:40:46.108Z,18.20
2017-09-22T16:43:14.198Z,18.20
2017-09-22T16:45:42.185Z,18.20
2017-09-22T16:48:10.867Z,18.20
2017-09-22T16:50:38.779Z,18.20
2017-09-22T16:53:06.739Z,18.10
2017-09-22T16:55:33.912Z,18.10
2017-09-22T16:58:02.027Z,18.20
2017-09-22T17:00:29.946Z,18.20
2017-09-22T17:02:57.131Z,18.10
2017-09-22T17:05:24.271Z,18.20
2017-09-22T17:07:52.352Z,18.20
2017-09-22T17:10:19.540Z,18.10
2017-09-22T17:12:47.447Z,18.20
2017-09-22T17:15:14.601Z,18.10
2017-09-22T17:17:41.794Z,18.10
2017-09-22T17:20:09.710Z,18.10
2017-09-22T17:22:36.895Z,18.10
2017-09-22T17:25:04.044Z,18.10
2017-09-22T17:27:31.204Z,18.10
2017-09-22T17:29:58.383Z,18.20
2017-09-22T17:32:26.338Z,18.20
2017-09-22T17:34:53.487Z,18.10
2017-09-22T17:37:20.636Z,18.20
2017-09-22T17:39:47.815Z,18.10
2017-09-22T17:42:15.759Z,18.10
2017-09-22T17:44:42.942Z,18.10
2017-09-22T17:47:10.080Z,18.00
2017-09-22T17:49:37.987Z,17.70
2017-09-22T17:52:05.972Z,17.60
2017-09-22T17:54:33.119Z,17.50
2017-09-22T17:57:00.263Z,17.50
2017-09-22T17:59:28.247Z,17.50
2017-09-22T18:02:03.292Z,17.50
2017-09-22T18:04:35.291Z,17.80
2017-09-22T18:07:02.568Z,17.70
2017-09-22T18:09:33.655Z,17.90
2017-09-22T18:12:00.963Z,17.90
2017-09-22T18:14:29.534Z,18.00
2017-09-22T18:16:58.250Z,18.00
2017-09-22T18:19:25.519Z,18.00
2017-09-22T18:21:52.707Z,18.10
2017-09-22T18:24:21.540Z,18.10
2017-09-22T18:26:48.691Z,18.00
2017-09-22T18:29:15.881Z,18.10
2017-09-22T18:31:43.059Z,18.00
2017-09-22T18:34:11.014Z,17.70
2017-09-22T18:36:39.064Z,17.60
2017-09-22T18:39:07.127Z,17.50
2017-09-22T18:41:35.222Z,17.50
2017-09-22T18:44:02.394Z,17.40
2017-09-22T18:46:30.340Z,17.30
2017-09-22T18:48:58.459Z,17.30
2017-09-22T18:51:25.608Z,17.30
2017-09-22T18:53:52.755Z,17.30
2017-09-22T18:56:19.940Z,17.20
2017-09-22T18:58:47.115Z,17.20
2017-09-22T19:01:14.311Z,17.10
2017-09-22T19:03:41.463Z,17.20
2017-09-22T19:06:09.523Z,17.10
2017-09-22T19:08:38.423Z,17.10
2017-09-22T19:11:06.464Z,17.10
2017-09-22T19:13:33.651Z,17.20
2017-09-22T19:16:00.808Z,17.20
2017-09-22T19:18:27.952Z,17.20
2017-09-22T19:20:55.131Z,17.20
2017-09-22T19:23:23.101Z,17.30
2017-09-22T19:25:51.223Z,17.40
2017-09-22T19:28:20.108Z,17.50
2017-09-22T19:30:47.297Z,17.50
2017-09-22T19:33:14.447Z,17.60
2017-09-22T19:35:41.620Z,17.60
2017-09-22T19:38:08.799Z,17.60
2017-09-22T19:40:35.948Z,17.60
2017-09-22T19:43:03.131Z,17.40
2017-09-22T19:45:31.044Z,17.30
2017-09-22T19:47:59.043Z,17.30
2017-09-22T19:50:26.203Z,17.40
2017-09-22T19:52:54.259Z,17.40
2017-09-22T19:55:21.444Z,17.50
2017-09-22T19:57:49.392Z,17.50
2017-09-22T20:00:16.567Z,17.50
2017-09-22T20:02:44.609Z,17.60
2017-09-22T20:05:12.587Z,17.50
2017-09-22T20:07:39.734Z,17.60
2017-09-22T20:10:07.675Z,17.60
2017-09-22T20:12:34.856Z,17.60
2017-09-22T20:15:02.007Z,17.60
2017-09-22T20:17:29.195Z,17.60
2017-09-22T20:19:57.104Z,17.60
2017-09-22T20:22:24.248Z,17.50
2017-09-22T20:24:52.209Z,17.60
2017-09-22T20:27:19.357Z,17.60
2017-09-22T20:29:46.504Z,17.60
2017-09-22T20:32:14.605Z,17.60
2017-09-22T20:34:41.747Z,17.60
2017-09-22T20:37:09.744Z,17.60
2017-09-22T20:39:36.883Z,17.60
2017-09-22T20:42:04.959Z,17.50
2017-09-22T20:44:33.053Z,17.50
2017-09-22T20:47:00.200Z,17.50
2017-09-22T20:49:27.399Z,17.50
2017-09-22T20:51:55.324Z,17.50
2017-09-22T20:54:23.284Z,17.50
2017-09-22T20:56:50.459Z,17.50
2017-09-22T20:59:18.391Z,17.50
2017-09-22T21:01:45.570Z,17.50
2017-09-22T21:04:14.300Z,17.50
2017-09-22T21:06:41.475Z,17.50
2017-09-22T21:09:09.556Z,17.50
2017-09-22T21:11:37.507Z,17.50
2017-09-22T21:14:04.652Z,17.50
2017-09-22T21:16:31.838Z,17.50
2017-09-22T21:18:59.891Z,17.50
2017-09-22T21:21:27.031Z,17.50
2017-09-22T21:23:54.215Z,17.60
2017-09-22T21:26:21.356Z,17.60
2017-09-22T21:28:48.495Z,17.60
2017-09-22T21:31:16.503Z,17.60
2017-09-22T21:33:45.190Z,17.60
2017-09-22T21:36:12.335Z,17.60
2017-09-22T21:38:39.514Z,17.60
2017-09-22T21:41:07.443Z,17.60
2017-09-22T21:43:35.539Z,17.60
2017-09-22T21:46:03.496Z,17.60
2017-09-22T21:48:31.570Z,17.60
2017-09-22T21:50:58.716Z,17.60
2017-09-22T21:53:25.904Z,17.60
2017-09-22T21:55:53.843Z,17.60
2017-09-22T21:58:21.885Z,17.60
2017-09-22T22:00:50.035Z,17.60
2017-09-22T22:03:22.967Z,17.60
2017-09-22T22:05:50.158Z,17.60
2017-09-22T22:08:18.225Z,17.60
2017-09-22T22:10:45.371Z,17.60
2017-09-22T22:13:13.331Z,17.40
2017-09-22T22:15:41.247Z,17.20
2017-09-22T22:18:09.168Z,17.10
2017-09-22T22:20:37.110Z,17.30
2017-09-22T22:23:04.289Z,17.30
2017-09-22T22:25:33.155Z,17.40
2017-09-22T22:28:01.230Z,17.40
2017-09-22T22:30:28.376Z,17.50
2017-09-22T22:32:56.345Z,17.50
2017-09-22T22:35:23.532Z,17.60
2017-09-22T22:37:52.344Z,17.50
2017-09-22T22:40:20.412Z,17.40
2017-09-22T22:42:48.469Z,17.50
2017-09-22T22:45:16.412Z,17.50
2017-09-22T22:47:43.557Z,17.50
2017-09-22T22:50:11.526Z,17.60
2017-09-22T22:52:39.515Z,17.60
2017-09-22T22:55:07.447Z,17.70
2017-09-22T22:57:34.635Z,17.80
2017-09-22T23:00:02.717Z,17.90
2017-09-22T23:02:30.636Z,18.00
2017-09-22T23:04:57.816Z,18.00
2017-09-22T23:07:24.958Z,18.10
2017-09-22T23:09:52.971Z,18.10
2017-09-22T23:12:20.882Z,18.20
2017-09-22T23:14:48.027Z,18.20
2017-09-22T23:17:15.203Z,18.20
2017-09-22T23:19:43.135Z,18.20
2017-09-22T23:22:10.312Z,18.20
2017-09-22T23:24:38.269Z,18.20
2017-09-22T23:27:05.443Z,18.20
2017-09-22T23:29:33.398Z,18.20
2017-09-22T23:32:00.551Z,18.20
2017-09-22T23:34:28.586Z,18.20
2017-09-22T23:36:55.772Z,18.10
2017-09-22T23:39:22.964Z,18.20
2017-09-22T23:41:50.115Z,18.20
2017-09-22T23:44:18.800Z,18.10
2017-09-22T23:46:47.652Z,18.10
2017-09-22T23:49:15.731Z,18.10
2017-09-22T23:51:42.910Z,18.10
2017-09-22T23:54:10.963Z,18.10
2017-09-22T23:56:38.958Z,18.10
2017-09-22T23:59:06.109Z,18.10
